Time;durP1;ratioP1;P1;durP2;ratioP2;P2;SDS_P1;SDS_P2;PMS_P1;PMS_P2;Temp;Humidity;BMP_temperature;BMP_pressure;BME280_temperature;BME280_humidity;BME280_pressure;Samples;Min_cycle;Max_cycle;Signal;HPM_P1;HPM_P2
2022/06/11 00:01:52;;;;;;;8.37;4.07;;;;;;;;;;5092461;28;20282;-79
2022/06/11 00:04:21;;;;;;;9.97;3.90;;;;;;;;;;5089529;28;20201;-79
2022/06/11 00:06:49;;;;;;;12.53;3.93;;;;;;;;;;5087987;28;20205;-80
2022/06/11 00:09:19;;;;;;;9.23;4.03;;;;;;;;;;5089669;28;20211;-80
2022/06/11 00:11:47;;;;;;;7.67;3.50;;;;;;;;;;5093118;28;20219;-80
2022/06/11 00:14:14;;;;;;;6.97;3.70;;;;;;;;;;5094291;28;20280;-80
2022/06/11 00:16:42;;;;;;;8.07;3.97;;;;;;;;;;5094427;28;20217;-81
2022/06/11 00:19:09;;;;;;;8.10;4.07;;;;;;;;;;5098678;28;20305;-80
2022/06/11 00:21:39;;;;;;;6.50;3.67;;;;;;;;;;5098485;28;20224;-81
2022/06/11 00:24:06;;;;;;;7.70;3.80;;;;;;;;;;5098658;28;20232;-81
2022/06/11 00:26:35;;;;;;;8.50;3.67;;;;;;;;;;5102203;28;20221;-81
2022/06/11 00:29:04;;;;;;;6.70;3.80;;;;;;;;;;5105387;28;20209;-79
2022/06/11 00:31:31;;;;;;;7.53;3.80;;;;;;;;;;5095932;28;20228;-81
2022/06/11 00:33:58;;;;;;;9.70;3.57;;;;;;;;;;5095383;28;20247;-80
2022/06/11 00:36:26;;;;;;;7.30;3.63;;;;;;;;;;5090200;28;21376;-81
2022/06/11 00:38:54;;;;;;;9.57;4.13;;;;;;;;;;5095098;28;20206;-80
2022/06/11 00:41:22;;;;;;;8.10;3.70;;;;;;;;;;5091833;28;20271;-80
2022/06/11 00:43:53;;;;;;;9.40;3.80;;;;;;;;;;5094327;28;20295;-80
2022/06/11 00:46:38;;;;;;;7.87;4.10;;;;;;;;;;5087333;28;20227;-81
2022/06/11 00:49:07;;;;;;;10.97;3.50;;;;;;;;;;5091761;28;20625;-80
2022/06/11 00:51:35;;;;;;;11.43;3.80;;;;;;;;;;5088352;28;20224;-81
2022/06/11 00:54:05;;;;;;;6.53;3.90;;;;;;;;;;5091073;28;20194;-79
2022/06/11 00:56:34;;;;;;;8.60;4.17;;;;;;;;;;5090152;28;20197;-80
2022/06/11 00:59:05;;;;;;;8.43;4.00;;;;;;;;;;5093453;28;20664;-80
2022/06/11 01:01:32;;;;;;;8.27;4.43;;;;;;;;;;5091753;28;20213;-82
2022/06/11 01:04:01;;;;;;;9.00;4.70;;;;;;;;;;5094970;28;20232;-82
2022/06/11 01:06:31;;;;;;;9.60;4.60;;;;;;;;;;5092311;28;20210;-80
2022/06/11 01:09:02;;;;;;;15.13;4.80;;;;;;;;;;5094235;28;20206;-80
2022/06/11 01:11:50;;;;;;;10.40;4.43;;;;;;;;;;5092875;28;20313;-81
2022/06/11 01:14:26;;;;;;;10.70;4.87;;;;;;;;;;5088034;28;20277;-80
2022/06/11 01:16:58;;;;;;;8.60;4.17;;;;;;;;;;5094756;28;20201;-81
2022/06/11 01:19:40;;;;;;;9.73;4.33;;;;;;;;;;5091597;28;20297;-80
2022/06/11 01:22:11;;;;;;;11.57;4.20;;;;;;;;;;5092255;28;20212;-81
2022/06/11 01:25:00;;;;;;;10.67;3.87;;;;;;;;;;5094028;28;20294;-81
2022/06/11 01:27:37;;;;;;;12.33;4.13;;;;;;;;;;5099198;28;20623;-80
2022/06/11 01:30:07;;;;;;;8.00;4.30;;;;;;;;;;5091244;28;20295;-81
2022/06/11 01:32:42;;;;;;;10.53;3.90;;;;;;;;;;5095575;28;20710;-82
2022/06/11 01:35:13;;;;;;;11.47;3.90;;;;;;;;;;5090287;28;20205;-80
2022/06/11 01:37:43;;;;;;;10.80;4.20;;;;;;;;;;5093875;28;20296;-80
2022/06/11 01:40:16;;;;;;;10.30;4.27;;;;;;;;;;5094017;28;20226;-80
2022/06/11 01:42:46;;;;;;;7.70;4.00;;;;;;;;;;5087347;28;20243;-80
2022/06/11 01:45:16;;;;;;;10.93;4.07;;;;;;;;;;5090101;28;20205;-81
2022/06/11 01:47:45;;;;;;;6.37;4.00;;;;;;;;;;5093255;28;20245;-79
2022/06/11 01:50:13;;;;;;;8.50;4.10;;;;;;;;;;5091582;28;20233;-80
2022/06/11 01:52:53;;;;;;;8.53;4.43;;;;;;;;;;5094615;28;20236;-81
2022/06/11 01:55:23;;;;;;;7.10;4.20;;;;;;;;;;5095002;28;20217;-80
2022/06/11 01:58:07;;;;;;;5.80;3.97;;;;;;;;;;5098707;28;20265;-80
2022/06/11 02:00:37;;;;;;;8.83;4.00;;;;;;;;;;5091533;28;20300;-79
2022/06/11 02:03:12;;;;;;;9.90;4.17;;;;;;;;;;5090066;28;20208;-82
2022/06/11 02:05:45;;;;;;;8.50;4.23;;;;;;;;;;5093902;28;20213;-82
2022/06/11 02:08:16;;;;;;;10.37;4.10;;;;;;;;;;5096106;28;20382;-82
2022/06/11 02:10:46;;;;;;;8.77;4.30;;;;;;;;;;5091625;28;20217;-82
2022/06/11 02:13:17;;;;;;;10.43;4.70;;;;;;;;;;5093019;28;20217;-82
2022/06/11 02:15:48;;;;;;;11.37;4.33;;;;;;;;;;5092407;28;20210;-81
2022/06/11 02:18:18;;;;;;;8.70;4.37;;;;;;;;;;5092956;28;20194;-80
2022/06/11 02:20:51;;;;;;;8.27;4.37;;;;;;;;;;5091529;28;20222;-81
2022/06/11 02:23:20;;;;;;;6.90;4.40;;;;;;;;;;5093072;28;20194;-81
2022/06/11 02:25:49;;;;;;;6.90;4.30;;;;;;;;;;5096915;28;20228;-81
2022/06/11 02:28:18;;;;;;;12.37;4.20;;;;;;;;;;5093062;28;20201;-81
2022/06/11 02:30:48;;;;;;;8.43;4.43;;;;;;;;;;5096267;28;20271;-82
2022/06/11 02:33:16;;;;;;;7.20;4.30;;;;;;;;;;5095281;28;20677;-81
2022/06/11 02:35:46;;;;;;;6.53;4.17;;;;;;;;;;5091744;28;20615;-80
2022/06/11 02:38:15;;;;;;;6.37;4.20;;;;;;;;;;5091148;28;20201;-82
2022/06/11 02:40:43;;;;;;;12.87;4.33;;;;;;;;;;5091512;28;20729;-82
2022/06/11 02:43:11;;;;;;;6.83;4.20;;;;;;;;;;5089259;28;20217;-81
2022/06/11 02:45:38;;;;;;;11.27;4.67;;;;;;;;;;5093099;28;20266;-82
2022/06/11 02:48:07;;;;;;;8.10;4.13;;;;;;;;;;5098515;28;20232;-80
2022/06/11 02:50:35;;;;;;;8.03;4.20;;;;;;;;;;5093035;28;21473;-82
2022/06/11 02:53:05;;;;;;;8.30;4.90;;;;;;;;;;5091884;28;20224;-81
2022/06/11 02:55:32;;;;;;;11.93;4.40;;;;;;;;;;5084041;28;20668;-81
2022/06/11 02:57:59;;;;;;;10.20;3.97;;;;;;;;;;5088439;28;20219;-80
2022/06/11 03:00:28;;;;;;;8.97;4.17;;;;;;;;;;5084079;28;20701;-81
2022/06/11 03:02:56;;;;;;;8.73;3.57;;;;;;;;;;5085454;28;20216;-79
2022/06/11 03:05:26;;;;;;;8.13;4.03;;;;;;;;;;5081745;28;20229;-79
2022/06/11 03:07:53;;;;;;;7.77;4.13;;;;;;;;;;5088527;28;20210;-80
2022/06/11 03:10:22;;;;;;;7.43;4.03;;;;;;;;;;5087866;28;20543;-79
2022/06/11 03:12:50;;;;;;;5.80;4.00;;;;;;;;;;5092939;28;20221;-80
2022/06/11 03:15:18;;;;;;;7.40;4.23;;;;;;;;;;5088480;28;20608;-81
2022/06/11 03:17:46;;;;;;;9.73;3.80;;;;;;;;;;5089613;28;20261;-82
2022/06/11 03:20:14;;;;;;;11.53;4.13;;;;;;;;;;5113996;22;20337;-84
2022/06/11 03:22:46;;;;;;;8.83;3.80;;;;;;;;;;5080964;28;20261;-82
2022/06/11 03:25:22;;;;;;;7.40;4.00;;;;;;;;;;5086898;28;20209;-84
2022/06/11 03:27:52;;;;;;;5.77;4.00;;;;;;;;;;5089174;28;20223;-82
2022/06/11 03:30:20;;;;;;;9.93;4.33;;;;;;;;;;5091163;28;20213;-83
2022/06/11 03:32:47;;;;;;;10.47;4.73;;;;;;;;;;5084625;28;20244;-80
2022/06/11 03:35:15;;;;;;;11.93;4.40;;;;;;;;;;5090908;28;20288;-81
2022/06/11 03:37:45;;;;;;;7.23;3.90;;;;;;;;;;5086956;28;20221;-82
2022/06/11 03:40:14;;;;;;;7.90;4.37;;;;;;;;;;5086863;28;20702;-82
2022/06/11 03:42:44;;;;;;;8.00;4.00;;;;;;;;;;5088713;28;20201;-82
2022/06/11 03:45:15;;;;;;;8.63;4.13;;;;;;;;;;5089630;28;20664;-83
2022/06/11 03:47:50;;;;;;;7.57;4.30;;;;;;;;;;5090910;28;20288;-83
2022/06/11 03:50:19;;;;;;;6.13;4.30;;;;;;;;;;5090549;28;20192;-82
2022/06/11 03:52:47;;;;;;;5.83;3.83;;;;;;;;;;5093106;28;20315;-81
2022/06/11 03:55:15;;;;;;;8.53;3.90;;;;;;;;;;5093194;28;20201;-82
2022/06/11 03:57:44;;;;;;;9.87;4.27;;;;;;;;;;5103548;28;20201;-85
2022/06/11 04:01:14;;;;;;;6.67;4.07;;;;;;;;;;5093325;28;20275;-82
2022/06/11 04:03:10;;;;;;;7.63;3.80;;;;;;;;;;5086444;28;20204;-81
2022/06/11 04:05:48;;;;;;;5.97;2.97;;;;;;;;;;5085059;28;20292;-81
2022/06/11 04:08:17;;;;;;;7.27;3.03;;;;;;;;;;5090291;28;20201;-85
2022/06/11 04:10:46;;;;;;;8.57;3.00;;;;;;;;;;5090019;28;20345;-82
2022/06/11 04:13:14;;;;;;;5.00;2.80;;;;;;;;;;5086787;28;20217;-81
2022/06/11 04:15:42;;;;;;;5.00;2.83;;;;;;;;;;5085268;28;20207;-81
2022/06/11 04:18:11;;;;;;;6.27;2.90;;;;;;;;;;5084008;28;20201;-81
2022/06/11 04:20:41;;;;;;;8.67;2.87;;;;;;;;;;5091748;28;20229;-82
2022/06/11 04:23:08;;;;;;;9.97;2.97;;;;;;;;;;5087403;28;20205;-82
2022/06/11 04:25:37;;;;;;;10.07;3.40;;;;;;;;;;5084138;28;20289;-85
2022/06/11 04:28:04;;;;;;;7.77;3.13;;;;;;;;;;5085323;28;20216;-82
2022/06/11 04:30:35;;;;;;;6.80;3.20;;;;;;;;;;5086256;28;20374;-85
2022/06/11 04:33:09;;;;;;;9.47;3.10;;;;;;;;;;5091230;28;20300;-85
2022/06/11 04:35:43;;;;;;;8.37;3.60;;;;;;;;;;5088593;28;20263;-84
2022/06/11 04:38:12;;;;;;;9.23;3.40;;;;;;;;;;5086410;28;20217;-82
2022/06/11 04:40:42;;;;;;;10.93;3.57;;;;;;;;;;5083814;28;20232;-82
2022/06/11 04:43:14;;;;;;;4.43;3.37;;;;;;;;;;5089850;28;20655;-82
2022/06/11 04:45:43;;;;;;;6.80;3.57;;;;;;;;;;5089989;28;20207;-80
2022/06/11 04:48:13;;;;;;;9.33;3.87;;;;;;;;;;5086841;28;20285;-80
2022/06/11 04:50:41;;;;;;;10.13;4.00;;;;;;;;;;5087993;28;20230;-80
2022/06/11 04:53:09;;;;;;;6.20;3.50;;;;;;;;;;5092617;28;20313;-82
2022/06/11 04:55:36;;;;;;;7.60;3.60;;;;;;;;;;5083066;28;20262;-82
2022/06/11 04:58:05;;;;;;;7.70;4.13;;;;;;;;;;5102918;27;20224;-86
2022/06/11 05:00:36;;;;;;;7.87;3.73;;;;;;;;;;5110633;27;20229;-86
2022/06/11 05:03:04;;;;;;;7.77;3.63;;;;;;;;;;5103290;28;20220;-80
2022/06/11 05:05:31;;;;;;;6.63;3.60;;;;;;;;;;5100861;28;20198;-81
2022/06/11 05:10:48;;;;;;;9.57;4.20;;;;;;;;;;5091834;28;20593;-83
2022/06/11 05:13:24;;;;;;;9.30;3.80;;;;;;;;;;5090537;28;20220;-81
2022/06/11 05:15:54;;;;;;;10.80;3.80;;;;;;;;;;5088399;28;20193;-84
2022/06/11 05:18:22;;;;;;;9.20;4.10;;;;;;;;;;5091895;28;20200;-84
2022/06/11 05:20:50;;;;;;;6.97;4.17;;;;;;;;;;5089903;28;20236;-83
2022/06/11 05:23:17;;;;;;;6.50;3.90;;;;;;;;;;5095291;28;20201;-85
2022/06/11 05:25:46;;;;;;;10.67;4.10;;;;;;;;;;5094217;28;21315;-84
2022/06/11 05:28:16;;;;;;;8.07;3.70;;;;;;;;;;5093250;28;20627;-84
2022/06/11 05:30:54;;;;;;;8.67;3.60;;;;;;;;;;5099708;28;20222;-82
2022/06/11 05:33:27;;;;;;;8.60;4.23;;;;;;;;;;5094749;28;20597;-80
2022/06/11 05:35:54;;;;;;;6.97;4.13;;;;;;;;;;5096235;28;20234;-81
2022/06/11 05:38:23;;;;;;;7.67;3.83;;;;;;;;;;5090055;28;20208;-82
2022/06/11 05:40:51;;;;;;;12.47;4.77;;;;;;;;;;5087933;28;20312;-81
2022/06/11 05:43:18;;;;;;;6.30;4.00;;;;;;;;;;5092432;28;20221;-81
2022/06/11 05:45:50;;;;;;;11.13;4.20;;;;;;;;;;5087483;28;20195;-80
2022/06/11 05:48:18;;;;;;;6.70;4.10;;;;;;;;;;5090302;28;20201;-80
2022/06/11 05:50:46;;;;;;;7.53;4.20;;;;;;;;;;5091696;28;20250;-81
2022/06/11 05:53:16;;;;;;;10.97;4.30;;;;;;;;;;5093835;28;20208;-83
2022/06/11 05:55:44;;;;;;;7.80;3.97;;;;;;;;;;5088020;28;20223;-81
2022/06/11 05:58:13;;;;;;;17.77;5.63;;;;;;;;;;5093954;28;20224;-81
2022/06/11 06:00:40;;;;;;;7.73;4.80;;;;;;;;;;5090666;28;20324;-84
2022/06/11 06:03:09;;;;;;;8.57;4.23;;;;;;;;;;5097378;28;20216;-82
2022/06/11 06:05:38;;;;;;;12.77;4.03;;;;;;;;;;5088216;28;20262;-82
2022/06/11 06:08:07;;;;;;;8.60;4.70;;;;;;;;;;5095224;28;20675;-82
2022/06/11 06:10:34;;;;;;;9.77;4.53;;;;;;;;;;5091830;28;20640;-84
2022/06/11 06:13:45;;;;;;;11.43;4.27;;;;;;;;;;5093366;28;20344;-84
2022/06/11 06:15:53;;;;;;;7.23;3.90;;;;;;;;;;5089389;28;20195;-84
2022/06/11 06:18:22;;;;;;;7.23;4.63;;;;;;;;;;5095027;28;20673;-84
2022/06/11 06:20:50;;;;;;;11.73;3.83;;;;;;;;;;5093745;28;20230;-85
2022/06/11 06:23:17;;;;;;;7.67;4.57;;;;;;;;;;5094067;28;20229;-84
2022/06/11 06:25:45;;;;;;;7.43;4.20;;;;;;;;;;5094491;28;20219;-84
2022/06/11 06:28:12;;;;;;;8.40;4.33;;;;;;;;;;5073949;28;20271;-84
2022/06/11 06:30:40;;;;;;;9.13;4.47;;;;;;;;;;5092952;28;20229;-85
2022/06/11 06:33:10;;;;;;;14.10;4.40;;;;;;;;;;5092842;28;20209;-83
2022/06/11 06:35:39;;;;;;;5.47;3.97;;;;;;;;;;5092197;28;20547;-84
2022/06/11 06:38:07;;;;;;;10.07;3.90;;;;;;;;;;5095953;28;20197;-85
2022/06/11 06:40:39;;;;;;;8.50;4.20;;;;;;;;;;5092780;28;20343;-84
2022/06/11 06:43:08;;;;;;;8.63;3.73;;;;;;;;;;5089655;28;20212;-84
2022/06/11 06:45:44;;;;;;;8.10;3.70;;;;;;;;;;5087500;28;20202;-84
2022/06/11 06:48:14;;;;;;;6.83;3.73;;;;;;;;;;5088085;28;20620;-84
2022/06/11 06:50:47;;;;;;;10.37;3.97;;;;;;;;;;5088510;28;20287;-84
2022/06/11 06:53:14;;;;;;;5.97;3.50;;;;;;;;;;5095525;27;20221;-86
2022/06/11 06:55:45;;;;;;;5.60;3.20;;;;;;;;;;5090078;28;20232;-84
2022/06/11 06:58:16;;;;;;;11.63;3.20;;;;;;;;;;5092438;28;20237;-86
2022/06/11 07:00:44;;;;;;;11.50;3.10;;;;;;;;;;5090819;28;20217;-84
2022/06/11 07:03:12;;;;;;;5.97;3.13;;;;;;;;;;5090150;28;20294;-86
2022/06/11 07:05:40;;;;;;;9.60;3.20;;;;;;;;;;5088120;28;20209;-85
2022/06/11 07:08:09;;;;;;;9.20;3.07;;;;;;;;;;5090569;28;20235;-83
2022/06/11 07:10:36;;;;;;;6.83;2.80;;;;;;;;;;5089237;28;20248;-85
2022/06/11 07:13:04;;;;;;;9.73;3.20;;;;;;;;;;5090984;28;20248;-84
2022/06/11 07:15:34;;;;;;;5.97;2.80;;;;;;;;;;5090889;28;20279;-84
2022/06/11 07:18:04;;;;;;;11.37;3.00;;;;;;;;;;5091330;28;20202;-84
2022/06/11 07:20:36;;;;;;;7.80;3.10;;;;;;;;;;5088476;28;20225;-85
2022/06/11 07:23:14;;;;;;;7.30;2.70;;;;;;;;;;5091202;28;20248;-85
2022/06/11 07:25:43;;;;;;;7.53;3.33;;;;;;;;;;5104037;28;20217;-83
2022/06/11 07:28:21;;;;;;;7.73;2.83;;;;;;;;;;5106865;28;20595;-84
2022/06/11 07:30:52;;;;;;;7.57;2.90;;;;;;;;;;5096148;28;20224;-85
2022/06/11 07:33:21;;;;;;;4.90;2.77;;;;;;;;;;5090418;28;20324;-85
2022/06/11 07:35:49;;;;;;;5.60;2.37;;;;;;;;;;5085196;28;20225;-85
2022/06/11 07:38:20;;;;;;;9.63;2.80;;;;;;;;;;5086952;28;20205;-84
2022/06/11 07:40:51;;;;;;;7.20;2.70;;;;;;;;;;5088695;28;20684;-86
2022/06/11 07:43:19;;;;;;;6.63;2.70;;;;;;;;;;5086610;28;20205;-86
2022/06/11 07:45:51;;;;;;;6.73;2.60;;;;;;;;;;5089334;28;20210;-85
2022/06/11 07:48:21;;;;;;;12.17;2.77;;;;;;;;;;5085069;28;20211;-84
2022/06/11 07:50:50;;;;;;;6.03;2.37;;;;;;;;;;5085637;28;20221;-85
2022/06/11 07:53:22;;;;;;;6.67;2.80;;;;;;;;;;5091360;28;20276;-85
2022/06/11 07:55:59;;;;;;;6.50;2.47;;;;;;;;;;5088472;28;20217;-86
2022/06/11 07:58:42;;;;;;;7.17;2.67;;;;;;;;;;5090809;28;20213;-84
2022/06/11 08:01:12;;;;;;;5.83;2.30;;;;;;;;;;5091237;28;20711;-85
2022/06/11 08:03:43;;;;;;;5.50;2.40;;;;;;;;;;5083737;28;20205;-85
2022/06/11 08:06:20;;;;;;;8.37;2.63;;;;;;;;;;5095393;28;20193;-84
2022/06/11 08:08:49;;;;;;;7.77;2.70;;;;;;;;;;5088401;28;20209;-85
2022/06/11 08:11:23;;;;;;;6.67;2.43;;;;;;;;;;5091212;28;20230;-85
2022/06/11 08:19:59;;;;;;;8.17;2.80;;;;;;;;;;5084015;28;20680;-83
2022/06/11 08:22:26;;;;;;;4.93;2.57;;;;;;;;;;5093290;28;20225;-87
2022/06/11 08:24:56;;;;;;;6.43;2.60;;;;;;;;;;5068754;28;20232;-86
2022/06/11 08:30:08;;;;;;;9.97;2.70;;;;;;;;;;5090274;28;20205;-83
2022/06/11 08:32:36;;;;;;;7.17;2.60;;;;;;;;;;5080358;28;20288;-83
2022/06/11 08:35:04;;;;;;;11.30;2.60;;;;;;;;;;5089035;28;20339;-83
2022/06/11 08:37:33;;;;;;;5.50;2.40;;;;;;;;;;5092999;28;20228;-86
2022/06/11 08:40:00;;;;;;;8.50;2.40;;;;;;;;;;5100404;28;20220;-82
2022/06/11 08:42:39;;;;;;;6.17;2.47;;;;;;;;;;5095365;28;20220;-86
2022/06/11 08:45:19;;;;;;;8.17;2.50;;;;;;;;;;5101886;28;21047;-83
2022/06/11 08:47:54;;;;;;;4.33;1.90;;;;;;;;;;5095817;28;20221;-83
2022/06/11 08:50:36;;;;;;;4.17;1.90;;;;;;;;;;5095136;28;20217;-85
2022/06/11 08:53:07;;;;;;;4.90;1.90;;;;;;;;;;5093784;28;20200;-83
2022/06/11 08:55:39;;;;;;;7.80;2.23;;;;;;;;;;5095854;28;20236;-83
2022/06/11 08:58:17;;;;;;;7.10;2.37;;;;;;;;;;5098579;28;20213;-80
2022/06/11 09:00:47;;;;;;;5.77;2.20;;;;;;;;;;5093231;28;20241;-80
2022/06/11 09:03:40;;;;;;;4.80;2.07;;;;;;;;;;5095257;28;20220;-81
2022/06/11 09:06:18;;;;;;;5.43;1.60;;;;;;;;;;5080169;28;20253;-82
2022/06/11 09:08:59;;;;;;;3.93;1.40;;;;;;;;;;5082746;28;20207;-84
2022/06/11 09:11:33;;;;;;;3.27;1.40;;;;;;;;;;5087627;28;20626;-85
2022/06/11 09:14:23;;;;;;;3.17;1.53;;;;;;;;;;5089687;28;20303;-81
2022/06/11 09:17:00;;;;;;;4.97;1.50;;;;;;;;;;5086316;28;20308;-82
2022/06/11 09:19:36;;;;;;;4.73;1.93;;;;;;;;;;5083008;28;20209;-84
2022/06/11 09:22:09;;;;;;;4.57;1.60;;;;;;;;;;5116394;22;20307;-79
2022/06/11 09:24:52;;;;;;;6.70;2.20;;;;;;;;;;5105642;28;20200;-79
2022/06/11 09:27:23;;;;;;;3.80;1.50;;;;;;;;;;5111818;28;20574;-81
2022/06/11 09:29:53;;;;;;;3.70;1.50;;;;;;;;;;5110105;28;20200;-80
2022/06/11 09:32:25;;;;;;;1.97;1.10;;;;;;;;;;5104521;28;20244;-81
2022/06/11 09:34:54;;;;;;;4.60;1.70;;;;;;;;;;5101910;28;20304;-82
2022/06/11 09:37:25;;;;;;;2.73;1.20;;;;;;;;;;5107051;28;20197;-81
2022/06/11 09:39:59;;;;;;;2.90;1.30;;;;;;;;;;5100786;28;20670;-81
2022/06/11 09:42:40;;;;;;;2.80;1.50;;;;;;;;;;5100793;28;21211;-80
2022/06/11 09:45:11;;;;;;;3.73;1.20;;;;;;;;;;5100127;28;20208;-80
2022/06/11 09:47:52;;;;;;;2.93;1.20;;;;;;;;;;5104466;28;20216;-81
2022/06/11 09:50:22;;;;;;;3.90;1.40;;;;;;;;;;5098538;28;20208;-80
2022/06/11 09:52:53;;;;;;;2.23;1.20;;;;;;;;;;5102118;28;20728;-80
2022/06/11 09:55:27;;;;;;;3.53;0.90;;;;;;;;;;5099944;28;20229;-80
2022/06/11 09:58:01;;;;;;;4.63;1.20;;;;;;;;;;5103067;28;20661;-80
2022/06/11 10:00:29;;;;;;;3.00;1.10;;;;;;;;;;5103149;28;20231;-80
2022/06/11 10:03:10;;;;;;;5.43;1.27;;;;;;;;;;5104957;28;20694;-80
2022/06/11 10:05:42;;;;;;;6.67;1.20;;;;;;;;;;5103599;28;20200;-79
2022/06/11 10:08:13;;;;;;;4.23;1.23;;;;;;;;;;5104239;28;20263;-80
2022/06/11 10:10:45;;;;;;;4.00;1.30;;;;;;;;;;5103093;28;20315;-80
2022/06/11 10:13:16;;;;;;;2.27;1.00;;;;;;;;;;5101376;28;20212;-80
2022/06/11 10:15:46;;;;;;;3.17;1.23;;;;;;;;;;5106018;28;20266;-81
2022/06/11 10:18:17;;;;;;;2.73;0.93;;;;;;;;;;5102156;28;20205;-80
2022/06/11 10:20:46;;;;;;;2.13;0.80;;;;;;;;;;5099400;28;20241;-81
2022/06/11 10:23:16;;;;;;;2.10;0.90;;;;;;;;;;5102169;28;20610;-80
2022/06/11 10:25:47;;;;;;;8.53;1.20;;;;;;;;;;5100648;28;20677;-81
2022/06/11 10:28:16;;;;;;;4.20;0.90;;;;;;;;;;5104856;27;20197;-81
2022/06/11 10:30:48;;;;;;;4.93;1.20;;;;;;;;;;5107228;28;20260;-82
2022/06/11 10:33:22;;;;;;;2.40;1.20;;;;;;;;;;5107034;28;20205;-82
2022/06/11 10:35:51;;;;;;;2.60;1.10;;;;;;;;;;5105149;28;20224;-82
2022/06/11 10:38:24;;;;;;;8.40;1.40;;;;;;;;;;5103632;28;20210;-82
2022/06/11 10:40:53;;;;;;;3.37;1.33;;;;;;;;;;5109978;28;20368;-81
2022/06/11 10:43:23;;;;;;;3.73;1.10;;;;;;;;;;5110365;28;20197;-81
2022/06/11 10:45:50;;;;;;;4.50;1.33;;;;;;;;;;5101001;28;20585;-81
2022/06/11 10:48:22;;;;;;;5.47;1.17;;;;;;;;;;5110566;28;20291;-80
2022/06/11 10:50:50;;;;;;;2.07;1.00;;;;;;;;;;5102271;28;20231;-80
2022/06/11 10:53:20;;;;;;;4.17;1.10;;;;;;;;;;5104642;28;20212;-81
2022/06/11 10:55:50;;;;;;;4.17;1.27;;;;;;;;;;5101076;28;20299;-81
2022/06/11 10:58:21;;;;;;;2.73;1.20;;;;;;;;;;5099610;28;20228;-81
2022/06/11 11:00:53;;;;;;;2.93;1.10;;;;;;;;;;5103055;28;20259;-80
2022/06/11 11:03:25;;;;;;;4.53;1.20;;;;;;;;;;5104865;28;20208;-80
2022/06/11 11:05:54;;;;;;;4.67;1.17;;;;;;;;;;5103625;28;20201;-80
2022/06/11 11:08:21;;;;;;;5.90;1.07;;;;;;;;;;5102657;28;20208;-81
2022/06/11 11:10:49;;;;;;;2.50;0.80;;;;;;;;;;5100452;28;20232;-81
2022/06/11 11:13:23;;;;;;;2.07;0.80;;;;;;;;;;5106960;28;20290;-81
2022/06/11 11:15:56;;;;;;;2.27;1.20;;;;;;;;;;5099214;28;20316;-81
2022/06/11 11:18:26;;;;;;;2.70;0.80;;;;;;;;;;5102774;28;20210;-81
2022/06/11 11:20:55;;;;;;;2.53;0.90;;;;;;;;;;5105554;28;20232;-81
2022/06/11 11:23:25;;;;;;;2.07;1.00;;;;;;;;;;5103261;28;20216;-81
2022/06/11 11:25:54;;;;;;;1.80;0.90;;;;;;;;;;5100950;28;20276;-81
2022/06/11 11:28:24;;;;;;;3.00;1.10;;;;;;;;;;5104635;28;20680;-80
2022/06/11 11:30:59;;;;;;;2.40;1.10;;;;;;;;;;5102040;28;20218;-80
2022/06/11 11:33:30;;;;;;;2.07;1.13;;;;;;;;;;5103305;28;20204;-81
2022/06/11 11:36:02;;;;;;;1.63;0.83;;;;;;;;;;5101211;28;20308;-81
2022/06/11 11:38:29;;;;;;;5.40;1.30;;;;;;;;;;5097754;28;20204;-81
2022/06/11 11:40:58;;;;;;;4.10;1.13;;;;;;;;;;5100619;28;20590;-82
2022/06/11 11:43:26;;;;;;;1.93;0.90;;;;;;;;;;5102120;28;20197;-82
2022/06/11 11:45:57;;;;;;;5.57;0.87;;;;;;;;;;5101007;28;20720;-82
2022/06/11 11:48:29;;;;;;;2.83;0.90;;;;;;;;;;5105160;28;20282;-81
2022/06/11 11:50:58;;;;;;;1.97;1.00;;;;;;;;;;5100856;28;20233;-85
2022/06/11 11:53:28;;;;;;;6.63;1.00;;;;;;;;;;5101417;28;20295;-84
2022/06/11 11:55:56;;;;;;;4.13;0.70;;;;;;;;;;5101958;28;20256;-85
2022/06/11 11:58:27;;;;;;;2.80;0.90;;;;;;;;;;5104524;28;20218;-82
2022/06/11 12:00:55;;;;;;;2.63;0.87;;;;;;;;;;5104518;28;20221;-84
2022/06/11 12:03:24;;;;;;;1.40;0.70;;;;;;;;;;5101855;28;20548;-85
2022/06/11 12:05:54;;;;;;;1.60;0.90;;;;;;;;;;5102924;28;20198;-83
2022/06/11 12:08:23;;;;;;;2.97;0.90;;;;;;;;;;5103222;28;20235;-81
2022/06/11 12:10:51;;;;;;;2.07;0.70;;;;;;;;;;5110499;28;20235;-83
2022/06/11 12:13:21;;;;;;;1.90;0.77;;;;;;;;;;5108025;27;20565;-82
2022/06/11 12:15:53;;;;;;;1.43;0.80;;;;;;;;;;5107993;28;20769;-85
2022/06/11 12:18:21;;;;;;;3.60;0.90;;;;;;;;;;5106949;28;20210;-84
2022/06/11 12:20:50;;;;;;;1.27;0.60;;;;;;;;;;5109724;27;20227;-82
2022/06/11 12:23:23;;;;;;;2.10;0.87;;;;;;;;;;5108241;28;20311;-81
2022/06/11 12:25:55;;;;;;;2.00;0.77;;;;;;;;;;5109374;27;20207;-84
2022/06/11 12:28:25;;;;;;;2.73;0.80;;;;;;;;;;5108049;27;20205;-84
2022/06/11 12:30:52;;;;;;;5.13;0.80;;;;;;;;;;5106710;28;20213;-81
2022/06/11 12:33:20;;;;;;;2.47;0.70;;;;;;;;;;5107266;28;20224;-84
2022/06/11 12:35:52;;;;;;;4.93;0.90;;;;;;;;;;5109470;28;20217;-84
2022/06/11 12:38:26;;;;;;;2.03;0.80;;;;;;;;;;5104709;28;20210;-86
2022/06/11 12:40:54;;;;;;;4.30;0.90;;;;;;;;;;5106165;28;20585;-82
2022/06/11 12:43:31;;;;;;;0.90;0.60;;;;;;;;;;5105189;28;20224;-85
2022/06/11 12:46:04;;;;;;;1.07;0.67;;;;;;;;;;5103853;27;20227;-83
2022/06/11 12:48:38;;;;;;;2.07;0.87;;;;;;;;;;5108895;28;20207;-82
2022/06/11 12:51:10;;;;;;;2.87;0.73;;;;;;;;;;5107442;27;20734;-84
2022/06/11 12:53:53;;;;;;;2.27;0.80;;;;;;;;;;5109043;27;20237;-85
2022/06/11 12:56:28;;;;;;;2.07;0.83;;;;;;;;;;5105310;28;20213;-84
2022/06/11 12:59:10;;;;;;;3.70;1.00;;;;;;;;;;5116094;28;20294;-82
2022/06/11 13:01:43;;;;;;;2.20;0.80;;;;;;;;;;5050186;28;20225;-82
2022/06/11 13:04:26;;;;;;;1.93;0.80;;;;;;;;;;5108425;28;20216;-83
2022/06/11 13:07:01;;;;;;;2.07;0.80;;;;;;;;;;5113595;28;20232;-80
2022/06/11 13:09:35;;;;;;;2.77;0.77;;;;;;;;;;5110907;28;20197;-84
2022/06/11 13:12:11;;;;;;;6.57;1.40;;;;;;;;;;5110811;27;20315;-82
2022/06/11 13:14:59;;;;;;;19.03;1.60;;;;;;;;;;5108005;28;20209;-81
2022/06/11 13:17:35;;;;;;;8.43;1.33;;;;;;;;;;5103380;27;20218;-82
2022/06/11 13:20:08;;;;;;;3.77;0.90;;;;;;;;;;5110151;28;20197;-82
2022/06/11 13:22:42;;;;;;;3.47;1.00;;;;;;;;;;5104714;28;20675;-81
2022/06/11 13:25:19;;;;;;;2.00;0.73;;;;;;;;;;5099377;28;20510;-80
2022/06/11 13:27:53;;;;;;;1.00;0.70;;;;;;;;;;5108110;28;20264;-82
2022/06/11 13:30:27;;;;;;;1.07;0.70;;;;;;;;;;5102844;28;20620;-81
2022/06/11 13:33:00;;;;;;;2.40;0.80;;;;;;;;;;5104837;28;20193;-83
2022/06/11 13:35:35;;;;;;;1.53;0.80;;;;;;;;;;5104316;28;20208;-81
2022/06/11 13:38:10;;;;;;;2.73;0.80;;;;;;;;;;5104955;28;20201;-81
2022/06/11 13:40:41;;;;;;;2.17;0.90;;;;;;;;;;5107683;28;20628;-82
2022/06/11 13:43:43;;;;;;;1.80;0.97;;;;;;;;;;5097784;28;20276;-83
2022/06/11 13:46:15;;;;;;;1.17;0.70;;;;;;;;;;5026624;28;20283;-83
2022/06/11 13:48:49;;;;;;;3.30;0.80;;;;;;;;;;5029971;28;20203;-82
2022/06/11 13:51:18;;;;;;;6.03;1.20;;;;;;;;;;5065530;27;20716;-83
2022/06/11 13:56:39;;;;;;;4.13;1.30;;;;;;;;;;5100995;27;20255;-81
2022/06/11 13:59:25;;;;;;;7.00;1.17;;;;;;;;;;5100175;27;20209;-82
2022/06/11 14:02:02;;;;;;;2.13;0.90;;;;;;;;;;5105270;28;20220;-81
2022/06/11 14:04:32;;;;;;;3.23;1.33;;;;;;;;;;5109208;28;20224;-80
2022/06/11 14:07:01;;;;;;;4.13;0.97;;;;;;;;;;5105315;28;20622;-80
2022/06/11 14:12:34;;;;;;;4.27;2.70;;;;;;;;;;5094591;28;20274;-80
2022/06/11 14:15:16;;;;;;;6.23;2.57;;;;;;;;;;5094993;28;20201;-81
2022/06/11 14:17:46;;;;;;;10.47;3.10;;;;;;;;;;5093871;28;21527;-82
2022/06/11 14:20:22;;;;;;;10.47;2.27;;;;;;;;;;5102590;28;20644;-80
2022/06/11 14:22:50;;;;;;;9.50;2.30;;;;;;;;;;5098623;28;20200;-85
2022/06/11 14:25:35;;;;;;;3.27;1.23;;;;;;;;;;5097782;28;20621;-85
2022/06/11 14:28:22;;;;;;;4.73;1.60;;;;;;;;;;5106797;28;20232;-84
2022/06/11 14:31:04;;;;;;;3.10;1.20;;;;;;;;;;5097688;28;20227;-84
2022/06/11 14:33:34;;;;;;;4.20;1.00;;;;;;;;;;5100800;27;20279;-84
2022/06/11 14:36:04;;;;;;;4.53;2.70;;;;;;;;;;5101243;28;20221;-84
2022/06/11 14:38:39;;;;;;;12.67;5.40;;;;;;;;;;5105262;28;20611;-83
2022/06/11 14:41:21;;;;;;;9.43;4.10;;;;;;;;;;5098209;28;20229;-82
2022/06/11 14:44:07;;;;;;;25.63;3.63;;;;;;;;;;5100324;28;20276;-82
2022/06/11 14:46:48;;;;;;;5.87;1.40;;;;;;;;;;5100779;28;20210;-82
2022/06/11 14:49:37;;;;;;;4.10;1.00;;;;;;;;;;5109540;28;20609;-82
2022/06/11 14:52:23;;;;;;;24.53;2.43;;;;;;;;;;5107333;28;20228;-82
2022/06/11 14:54:55;;;;;;;4.37;1.00;;;;;;;;;;5102372;28;20217;-81
2022/06/11 14:57:30;;;;;;;3.70;1.17;;;;;;;;;;5106076;28;20225;-83
2022/06/11 15:00:26;;;;;;;5.03;1.13;;;;;;;;;;5103876;28;20296;-82
2022/06/11 15:03:08;;;;;;;1.97;1.00;;;;;;;;;;5065835;28;20269;-82
2022/06/11 15:05:47;;;;;;;4.40;1.10;;;;;;;;;;5084233;28;20731;-83
2022/06/11 15:08:31;;;;;;;7.10;2.80;;;;;;;;;;5108035;28;20274;-84
2022/06/11 15:11:02;;;;;;;5.50;2.40;;;;;;;;;;5109097;28;20232;-85
2022/06/11 15:14:01;;;;;;;4.10;1.70;;;;;;;;;;5101566;28;20549;-82
2022/06/11 15:16:31;;;;;;;5.50;1.10;;;;;;;;;;5100984;28;20223;-84
2022/06/11 15:19:01;;;;;;;4.23;1.50;;;;;;;;;;5103826;28;20213;-84
2022/06/11 15:21:32;;;;;;;4.10;1.07;;;;;;;;;;5102270;28;20318;-83
2022/06/11 15:24:03;;;;;;;3.37;1.27;;;;;;;;;;5100279;28;20202;-83
2022/06/11 15:26:32;;;;;;;2.63;1.27;;;;;;;;;;5098980;28;20217;-81